Time;durP1;ratioP1;P1;durP2;ratioP2;P2;SDS_P1;SDS_P2;PMS_P1;PMS_P2;Temp;Humidity;BMP_temperature;BMP_pressure;BME280_temperature;BME280_humidity;BME280_pressure;Samples;Min_cycle;Max_cycle;Signal;HPM_P1;HPM_P2
2023/08/30 00:01:56;;;;;;;575.17;530.13;;;13.10;82.20;;;;;;4988869;28;20618;-60
2023/08/30 00:04:22;;;;;;;555.88;513.60;;;13.10;82.20;;;;;;5006330;28;20491;-60
2023/08/30 00:06:48;;;;;;;590.95;543.15;;;13.10;82.30;;;;;;4990238;28;20050;-60
2023/08/30 00:09:14;;;;;;;604.95;554.78;;;13.00;82.30;;;;;;5005191;28;20080;-60
2023/08/30 00:11:39;;;;;;;571.00;527.13;;;13.00;82.30;;;;;;4997101;28;20050;-59
2023/08/30 00:14:06;;;;;;;566.47;523.05;;;13.00;82.50;;;;;;5007875;28;20076;-59
2023/08/30 00:16:33;;;;;;;576.67;532.15;;;12.90;82.50;;;;;;4995370;28;20519;-59
2023/08/30 00:19:00;;;;;;;525.90;485.42;;;12.90;82.50;;;;;;4997393;28;20046;-59
2023/08/30 00:21:27;;;;;;;523.55;482.20;;;12.90;82.60;;;;;;5009090;28;20081;-59
2023/08/30 00:23:53;;;;;;;555.95;512.20;;;12.90;82.60;;;;;;5006396;28;20049;-59
2023/08/30 00:26:18;;;;;;;511.48;471.65;;;12.80;82.60;;;;;;4997896;28;20056;-59
2023/08/30 00:28:44;;;;;;;550.10;507.83;;;12.80;82.60;;;;;;5003221;28;20050;-59
2023/08/30 00:31:10;;;;;;;571.78;526.78;;;12.80;82.60;;;;;;5005383;28;20081;-59
2023/08/30 00:33:35;;;;;;;559.35;516.10;;;12.80;82.70;;;;;;4987580;28;20066;-59
2023/08/30 00:36:01;;;;;;;616.10;567.40;;;12.70;82.80;;;;;;5004674;28;20497;-59
2023/08/30 00:38:28;;;;;;;515.25;474.83;;;12.70;82.70;;;;;;4993089;28;20049;-59
2023/08/30 00:40:54;;;;;;;501.58;462.25;;;12.70;82.80;;;;;;4997652;28;20073;-59
2023/08/30 00:43:20;;;;;;;525.25;484.13;;;12.60;82.80;;;;;;5004536;28;20057;-60
2023/08/30 00:45:48;;;;;;;526.47;485.02;;;12.50;82.90;;;;;;4993795;28;20050;-59
2023/08/30 00:48:15;;;;;;;512.80;472.48;;;12.50;83.00;;;;;;4973579;28;20058;-59
2023/08/30 00:50:42;;;;;;;570.22;523.88;;;12.50;83.20;;;;;;5004163;28;20400;-59
2023/08/30 00:53:10;;;;;;;549.70;506.23;;;12.50;83.20;;;;;;5000792;28;20061;-59
2023/08/30 00:55:37;;;;;;;514.50;474.00;;;12.50;83.20;;;;;;4992131;28;20046;-59
2023/08/30 00:58:03;;;;;;;447.58;412.27;;;12.50;83.30;;;;;;4990286;28;20046;-59
2023/08/30 01:00:32;;;;;;;526.30;485.77;;;12.50;83.30;;;;;;4995144;28;20293;-59
2023/08/30 01:02:59;;;;;;;478.85;442.42;;;12.50;83.20;;;;;;4988358;28;20038;-59
2023/08/30 01:05:24;;;;;;;440.35;406.48;;;12.50;83.30;;;;;;5007734;28;20068;-59
2023/08/30 01:07:53;;;;;;;460.42;425.35;;;12.50;83.30;;;;;;4991948;28;20504;-59
2023/08/30 01:10:27;;;;;;;481.95;445.38;;;12.50;83.10;;;;;;5002541;28;20050;-59
2023/08/30 01:13:00;;;;;;;437.75;403.17;;;12.50;83.10;;;;;;4980431;28;20508;-59
2023/08/30 01:15:27;;;;;;;492.13;455.00;;;12.50;83.20;;;;;;4998364;28;20073;-59
2023/08/30 01:17:54;;;;;;;510.52;472.48;;;12.50;83.20;;;;;;4976999;28;20694;-59
2023/08/30 01:20:23;;;;;;;422.15;390.05;;;12.50;83.10;;;;;;5000766;28;20050;-59
2023/08/30 01:23:11;;;;;;;453.88;418.92;;;12.50;83.00;;;;;;5006914;28;20610;-59
2023/08/30 01:26:14;;;;;;;354.35;326.55;;;12.50;83.00;;;;;;5011690;28;20056;-59
2023/08/30 01:28:40;;;;;;;337.65;311.13;;;12.50;83.00;;;;;;5005699;28;20050;-59
2023/08/30 01:31:12;;;;;;;418.67;386.33;;;12.50;82.90;;;;;;5008860;28;20054;-59
2023/08/30 01:33:38;;;;;;;440.65;407.08;;;12.50;82.90;;;;;;4991177;28;20065;-59
2023/08/30 01:36:05;;;;;;;411.55;378.55;;;12.50;82.80;;;;;;4999521;28;20084;-59
2023/08/30 01:38:32;;;;;;;458.15;424.10;;;12.50;82.80;;;;;;5001016;28;20064;-59
2023/08/30 01:41:02;;;;;;;409.42;377.77;;;12.50;82.80;;;;;;5000787;28;20121;-59
2023/08/30 01:43:29;;;;;;;447.27;413.13;;;12.50;82.70;;;;;;4999502;28;20386;-59
2023/08/30 01:45:59;;;;;;;399.08;367.25;;;12.50;82.80;;;;;;5010560;28;20060;-59
2023/08/30 01:48:27;;;;;;;440.83;407.58;;;12.50;82.80;;;;;;4990165;28;20065;-59
2023/08/30 01:50:58;;;;;;;395.90;365.35;;;12.50;82.80;;;;;;5010410;28;20054;-59
2023/08/30 01:53:25;;;;;;;361.23;333.42;;;12.50;82.80;;;;;;5002955;28;20101;-59
2023/08/30 01:55:50;;;;;;;451.83;417.25;;;12.50;82.70;;;;;;4991077;28;20521;-59
2023/08/30 01:58:16;;;;;;;387.00;357.35;;;12.50;82.60;;;;;;4987709;28;20445;-59
2023/08/30 02:00:42;;;;;;;333.58;307.15;;;12.50;82.70;;;;;;4996017;28;20291;-59
2023/08/30 02:03:12;;;;;;;336.63;310.33;;;12.50;82.60;;;;;;4989822;28;20493;-59
2023/08/30 02:06:02;;;;;;;345.77;319.38;;;12.50;82.50;;;;;;5005387;28;20054;-59
2023/08/30 02:09:02;;;;;;;316.75;291.95;;;12.50;82.50;;;;;;5010394;28;20061;-59
2023/08/30 02:11:32;;;;;;;349.23;322.80;;;12.50;82.40;;;;;;4991744;28;20069;-59
2023/08/30 02:13:59;;;;;;;379.17;350.75;;;12.50;82.40;;;;;;4993882;28;20243;-59
2023/08/30 02:16:29;;;;;;;322.15;296.80;;;12.40;82.30;;;;;;4989860;28;20049;-59
2023/08/30 02:18:56;;;;;;;330.25;303.80;;;12.40;82.30;;;;;;4996641;28;20089;-59
2023/08/30 02:21:21;;;;;;;374.30;346.15;;;12.40;82.30;;;;;;5004086;28;20077;-59
2023/08/30 02:23:53;;;;;;;400.80;370.48;;;12.40;82.30;;;;;;5009094;28;20535;-59
2023/08/30 02:26:21;;;;;;;;;;;12.40;82.20;;;;;;4999844;28;20524;-60
2023/08/30 02:28:47;;;;;;;174.43;160.73;;;12.40;82.50;;;;;;5005147;28;19921;-59
2023/08/30 02:31:13;;;;;;;351.55;326.20;;;12.40;82.30;;;;;;5008072;28;20044;-59
2023/08/30 02:33:38;;;;;;;343.23;317.42;;;12.30;82.30;;;;;;4990446;28;20417;-59
2023/08/30 02:36:07;;;;;;;326.08;300.63;;;12.40;82.20;;;;;;5006317;28;20449;-60
2023/08/30 02:38:33;;;;;;;405.38;375.45;;;12.30;82.20;;;;;;4987410;28;20089;-59
2023/08/30 02:40:59;;;;;;;312.33;287.48;;;12.30;82.20;;;;;;4999614;28;20464;-59
2023/08/30 02:43:25;;;;;;;316.45;291.95;;;12.30;82.20;;;;;;4990169;28;20050;-59
2023/08/30 02:45:52;;;;;;;358.13;331.98;;;12.30;82.20;;;;;;5010207;28;20061;-59
2023/08/30 02:48:17;;;;;;;392.00;362.88;;;12.30;82.10;;;;;;4978504;28;20531;-59
2023/08/30 02:50:43;;;;;;;316.33;292.42;;;12.30;82.10;;;;;;4992342;28;20192;-59
2023/08/30 02:53:09;;;;;;;377.10;348.50;;;12.20;82.10;;;;;;5006774;28;20337;-59
2023/08/30 02:55:35;;;;;;;368.80;340.92;;;12.20;82.00;;;;;;5002103;28;20073;-59
2023/08/30 02:58:01;;;;;;;314.75;290.30;;;12.20;82.00;;;;;;4993857;28;20137;-59
2023/08/30 03:00:27;;;;;;;306.70;283.50;;;12.10;82.00;;;;;;4997290;28;21075;-59
2023/08/30 03:02:53;;;;;;;344.77;319.20;;;12.10;82.00;;;;;;4993671;28;20431;-59
2023/08/30 03:05:19;;;;;;;284.80;262.38;;;12.00;82.10;;;;;;5009732;28;20137;-59
2023/08/30 03:07:45;;;;;;;310.77;286.85;;;12.00;82.00;;;;;;4985666;28;20047;-59
2023/08/30 03:10:12;;;;;;;268.08;246.73;;;12.00;82.00;;;;;;4995956;28;20378;-59
2023/08/30 03:12:38;;;;;;;296.83;274.35;;;11.90;82.10;;;;;;5001600;28;20401;-59
2023/08/30 03:15:04;;;;;;;310.55;287.13;;;11.90;82.00;;;;;;5008075;28;20054;-59
2023/08/30 03:17:30;;;;;;;249.60;230.15;;;11.90;82.00;;;;;;4992700;28;20290;-59
2023/08/30 03:19:56;;;;;;;220.57;203.27;;;11.80;82.00;;;;;;5008590;28;20046;-59
2023/08/30 03:22:22;;;;;;;235.38;217.35;;;11.70;82.00;;;;;;5007998;28;20061;-59
2023/08/30 03:24:49;;;;;;;244.55;225.70;;;11.70;82.00;;;;;;4993314;28;20383;-59
2023/08/30 03:27:15;;;;;;;155.88;142.73;;;11.70;82.10;;;;;;4990068;28;20386;-59
2023/08/30 03:29:41;;;;;;;275.40;254.15;;;11.60;82.00;;;;;;5009419;28;20356;-59
2023/08/30 03:32:07;;;;;;;236.38;218.35;;;11.50;82.10;;;;;;4998836;28;20046;-59
2023/08/30 03:34:32;;;;;;;225.90;208.80;;;11.50;82.20;;;;;;4982809;28;20490;-59
2023/08/30 03:36:58;;;;;;;262.05;241.55;;;11.50;82.20;;;;;;4988680;28;20397;-59
2023/08/30 03:39:24;;;;;;;159.52;146.25;;;11.50;82.30;;;;;;5005110;28;20061;-60
2023/08/30 03:41:50;;;;;;;172.90;159.20;;;11.40;82.40;;;;;;5006082;28;20527;-59
2023/08/30 03:44:16;;;;;;;171.85;157.80;;;11.40;82.40;;;;;;5008390;28;20523;-59
2023/08/30 03:46:42;;;;;;;156.77;143.45;;;11.40;82.40;;;;;;4990810;28;20050;-59
2023/08/30 03:49:07;;;;;;;135.25;124.10;;;11.40;82.50;;;;;;4988745;28;20088;-59
2023/08/30 03:51:33;;;;;;;108.70;99.40;;;11.30;82.50;;;;;;4991346;28;20046;-61
2023/08/30 03:53:59;;;;;;;141.15;129.07;;;11.30;82.50;;;;;;4998903;28;20050;-59
2023/08/30 03:56:25;;;;;;;106.47;97.47;;;11.30;82.40;;;;;;4981419;28;20592;-59
2023/08/30 03:58:51;;;;;;;160.70;147.80;;;11.30;82.50;;;;;;5004331;28;20045;-59
2023/08/30 04:01:16;;;;;;;172.90;159.73;;;11.20;82.40;;;;;;4989921;28;20046;-59
2023/08/30 04:03:42;;;;;;;108.00;98.88;;;11.20;82.40;;;;;;5008408;28;20050;-59
2023/08/30 04:06:08;;;;;;;126.97;116.40;;;11.20;82.50;;;;;;4988188;28;20505;-59
2023/08/30 04:08:33;;;;;;;93.03;84.80;;;11.20;82.40;;;;;;4997827;28;20046;-59
2023/08/30 04:10:59;;;;;;;76.38;69.70;;;11.10;82.50;;;;;;4974793;28;20043;-59
2023/08/30 04:13:25;;;;;;;95.28;87.35;;;11.20;82.60;;;;;;4986277;28;20054;-59
2023/08/30 04:15:51;;;;;;;117.47;107.70;;;11.20;82.60;;;;;;4990265;28;20061;-59
2023/08/30 04:18:17;;;;;;;105.85;96.85;;;11.20;82.50;;;;;;4992447;28;20061;-58
2023/08/30 04:20:46;;;;;;;125.00;114.30;;;11.20;82.50;;;;;;4995108;28;20408;-59
2023/08/30 04:23:13;;;;;;;96.32;88.55;;;11.30;82.50;;;;;;5007741;28;20045;-59
2023/08/30 04:25:39;;;;;;;89.38;81.40;;;11.30;82.40;;;;;;5003643;28;20505;-59
2023/08/30 04:28:05;;;;;;;96.05;87.90;;;11.30;82.40;;;;;;4992868;28;20098;-59
2023/08/30 04:30:31;;;;;;;112.75;103.60;;;11.30;82.40;;;;;;4996994;28;20085;-59
2023/08/30 04:32:56;;;;;;;111.05;101.93;;;11.30;82.40;;;;;;4987239;28;20521;-59
2023/08/30 04:35:22;;;;;;;127.22;116.85;;;11.30;82.50;;;;;;4988899;28;20120;-59
2023/08/30 04:37:51;;;;;;;115.32;105.95;;;11.30;82.50;;;;;;4988927;28;20088;-59
2023/08/30 04:40:16;;;;;;;104.90;96.10;;;11.30;82.40;;;;;;5002226;28;20555;-59
2023/08/30 04:42:43;;;;;;;120.75;110.63;;;11.40;82.40;;;;;;5007742;28;20133;-59
2023/08/30 04:45:09;;;;;;;86.95;79.35;;;11.40;82.30;;;;;;5008017;28;20054;-59
2023/08/30 04:47:35;;;;;;;133.60;123.10;;;11.40;82.30;;;;;;4973368;28;20046;-59
2023/08/30 04:50:01;;;;;;;159.98;147.35;;;11.40;82.30;;;;;;5006958;28;20077;-59
2023/08/30 04:52:27;;;;;;;144.15;132.55;;;11.50;82.30;;;;;;5007376;28;20489;-59
2023/08/30 04:54:53;;;;;;;127.47;117.38;;;11.50;82.20;;;;;;4988457;28;20073;-59
2023/08/30 04:57:19;;;;;;;143.60;132.43;;;11.50;82.30;;;;;;4981453;28;20061;-59
2023/08/30 04:59:45;;;;;;;149.50;137.57;;;11.50;82.30;;;;;;4973287;28;20053;-59
2023/08/30 05:02:11;;;;;;;151.10;138.75;;;11.50;82.30;;;;;;4987269;28;20567;-59
2023/08/30 05:04:36;;;;;;;150.90;139.02;;;11.60;82.30;;;;;;4985281;28;20057;-60
2023/08/30 05:07:03;;;;;;;147.15;135.43;;;11.60;82.30;;;;;;4976648;28;20038;-58
2023/08/30 05:09:30;;;;;;;182.23;167.05;;;11.70;82.30;;;;;;4986124;28;20438;-59
2023/08/30 05:11:56;;;;;;;153.75;140.93;;;11.70;82.30;;;;;;4974855;28;20061;-59
2023/08/30 05:14:22;;;;;;;159.82;147.48;;;11.70;82.30;;;;;;4992606;28;20042;-59
2023/08/30 05:16:49;;;;;;;218.52;202.27;;;11.70;82.20;;;;;;4983662;28;20539;-59
2023/08/30 05:19:16;;;;;;;135.93;124.53;;;11.80;82.30;;;;;;4987751;28;20057;-59
2023/08/30 05:21:43;;;;;;;239.90;219.18;;;11.90;82.30;;;;;;5006765;28;20084;-60
2023/08/30 05:24:08;;;;;;;251.55;231.82;;;11.90;82.20;;;;;;5005766;28;20052;-59
2023/08/30 05:26:34;;;;;;;273.20;252.77;;;11.90;82.10;;;;;;4984616;28;20034;-59
2023/08/30 05:29:00;;;;;;;216.23;200.00;;;11.90;82.10;;;;;;4997520;28;20282;-59
2023/08/30 05:31:25;;;;;;;236.20;217.32;;;11.90;82.20;;;;;;4983217;28;20054;-59
2023/08/30 05:33:51;;;;;;;201.30;185.68;;;12.00;82.10;;;;;;4981691;28;20142;-60
2023/08/30 05:36:18;;;;;;;200.63;185.57;;;12.00;82.00;;;;;;4970561;28;20046;-60
2023/08/30 05:38:43;;;;;;;289.33;266.23;;;12.10;82.10;;;;;;4981722;28;20046;-59
2023/08/30 05:41:09;;;;;;;247.43;228.93;;;12.10;82.00;;;;;;4999132;28;20413;-59
2023/08/30 05:43:35;;;;;;;247.65;228.40;;;12.20;81.90;;;;;;4980704;28;20133;-59
2023/08/30 05:46:02;;;;;;;300.98;277.63;;;12.20;81.90;;;;;;4990892;28;20054;-59
2023/08/30 05:48:29;;;;;;;282.63;261.30;;;12.20;81.90;;;;;;4973358;28;20256;-59
2023/08/30 05:50:55;;;;;;;215.73;198.50;;;12.30;81.70;;;;;;4996631;28;20054;-59
2023/08/30 05:53:20;;;;;;;347.27;322.55;;;12.30;81.50;;;;;;4995771;28;20150;-59
2023/08/30 05:55:46;;;;;;;213.88;197.52;;;12.40;81.50;;;;;;4995905;28;20041;-60
2023/08/30 05:58:13;;;;;;;278.17;256.92;;;12.50;81.40;;;;;;4969966;28;20058;-60
2023/08/30 06:00:39;;;;;;;315.95;292.08;;;12.50;81.30;;;;;;4987091;28;20497;-59
2023/08/30 06:03:05;;;;;;;223.07;206.00;;;12.50;81.20;;;;;;4984487;28;20049;-59
2023/08/30 06:05:31;;;;;;;337.45;312.38;;;12.50;81.10;;;;;;4985769;28;20118;-59
2023/08/30 06:07:57;;;;;;;311.45;288.02;;;12.50;81.20;;;;;;4970191;28;20046;-59
2023/08/30 06:10:23;;;;;;;376.85;349.13;;;12.60;81.20;;;;;;4987721;28;20712;-59
2023/08/30 06:12:49;;;;;;;470.95;431.30;;;12.60;81.20;;;;;;4994781;28;20072;-59
2023/08/30 06:15:15;;;;;;;384.63;356.85;;;12.70;81.10;;;;;;4985929;28;20096;-59
2023/08/30 06:17:40;;;;;;;302.00;278.10;;;12.70;80.80;;;;;;4971545;28;20054;-60
2023/08/30 06:20:07;;;;;;;439.27;406.92;;;12.70;80.90;;;;;;4988858;28;20072;-59
2023/08/30 06:22:32;;;;;;;326.45;301.52;;;12.70;80.80;;;;;;4988519;28;20440;-59
2023/08/30 06:24:58;;;;;;;296.52;273.90;;;12.80;80.80;;;;;;4988498;28;20061;-60
2023/08/30 06:27:24;;;;;;;399.08;369.45;;;12.80;80.70;;;;;;4974004;28;20050;-59
2023/08/30 06:29:50;;;;;;;371.38;343.63;;;12.90;80.40;;;;;;4988674;28;20049;-59
2023/08/30 06:32:16;;;;;;;343.25;316.73;;;12.90;80.20;;;;;;4988961;28;20055;-59
2023/08/30 06:34:42;;;;;;;416.92;385.83;;;13.00;80.40;;;;;;4992559;28;20117;-59
2023/08/30 06:37:08;;;;;;;421.45;391.13;;;13.00;79.90;;;;;;4967231;28;20105;-59
2023/08/30 06:39:36;;;;;;;435.80;404.08;;;13.10;80.00;;;;;;4978282;28;20575;-59
2023/08/30 06:42:04;;;;;;;439.50;406.60;;;13.10;80.20;;;;;;4979410;28;20043;-60
2023/08/30 06:44:30;;;;;;;427.88;396.05;;;13.10;80.00;;;;;;4979052;28;20162;-59
2023/08/30 06:46:59;;;;;;;364.55;336.65;;;13.10;79.80;;;;;;4963306;28;20054;-59
2023/08/30 06:49:25;;;;;;;430.40;399.00;;;13.10;79.70;;;;;;4979333;28;20681;-59
2023/08/30 06:51:50;;;;;;;386.70;356.63;;;13.10;79.70;;;;;;4978859;28;20057;-60
2023/08/30 06:54:16;;;;;;;438.38;403.92;;;13.10;79.70;;;;;;4978266;28;21369;-60
2023/08/30 06:57:00;;;;;;;421.40;388.63;;;13.10;79.80;;;;;;4964288;28;20073;-60
2023/08/30 06:59:26;;;;;;;369.60;341.13;;;13.10;79.60;;;;;;4978560;28;20120;-60
2023/08/30 07:01:52;;;;;;;386.83;357.10;;;13.20;79.70;;;;;;4978634;28;20054;-59
2023/08/30 07:04:18;;;;;;;464.95;430.35;;;13.30;79.60;;;;;;4977941;28;20661;-59
2023/08/30 07:06:44;;;;;;;502.98;464.88;;;13.30;79.30;;;;;;4962687;28;20042;-59
2023/08/30 07:09:11;;;;;;;443.52;409.00;;;13.30;79.20;;;;;;4977966;28;20082;-59
2023/08/30 07:11:38;;;;;;;511.13;471.65;;;13.30;79.00;;;;;;4977249;28;20046;-60
2023/08/30 07:14:04;;;;;;;523.45;483.98;;;13.30;78.80;;;;;;4977126;28;20165;-59
2023/08/30 07:16:31;;;;;;;499.33;462.30;;;13.40;78.50;;;;;;4952609;28;20054;-59
2023/08/30 07:18:58;;;;;;;521.08;480.45;;;13.50;78.70;;;;;;4975707;28;20053;-60
2023/08/30 07:21:24;;;;;;;559.63;514.42;;;13.50;78.60;;;;;;4976295;28;20061;-60
2023/08/30 07:23:49;;;;;;;520.22;480.55;;;13.50;78.40;;;;;;4977448;28;20046;-59
2023/08/30 07:26:15;;;;;;;486.83;447.95;;;13.60;78.20;;;;;;4966797;28;20054;-60
2023/08/30 07:28:41;;;;;;;496.98;458.52;;;13.60;78.10;;;;;;4972998;28;20058;-59
2023/08/30 07:31:07;;;;;;;552.00;507.95;;;13.70;78.00;;;;;;4964209;28;20156;-60
2023/08/30 07:33:33;;;;;;;526.80;482.58;;;13.70;78.00;;;;;;4977369;28;20550;-60
2023/08/30 07:35:59;;;;;;;595.22;549.08;;;13.90;78.00;;;;;;4976843;28;20509;-59
2023/08/30 07:38:24;;;;;;;551.03;506.60;;;13.90;77.90;;;;;;4963316;28;20058;-59
2023/08/30 07:40:50;;;;;;;561.15;517.63;;;14.00;77.80;;;;;;4967252;28;20057;-59
2023/08/30 07:43:16;;;;;;;543.92;502.98;;;14.10;77.60;;;;;;4977256;28;20079;-59
2023/08/30 07:45:42;;;;;;;680.20;618.70;;;14.30;77.30;;;;;;4946841;28;20050;-59
2023/08/30 07:48:07;;;;;;;694.85;628.05;;;14.40;77.00;;;;;;4962475;28;20058;-59
2023/08/30 07:50:33;;;;;;;641.75;586.83;;;14.50;76.90;;;;;;4977519;28;20420;-60
2023/08/30 07:52:59;;;;;;;598.85;549.13;;;14.60;76.60;;;;;;4976506;28;20050;-59
2023/08/30 07:55:25;;;;;;;551.13;507.83;;;14.60;76.10;;;;;;4964525;28;20058;-59
2023/08/30 07:57:50;;;;;;;700.10;632.22;;;14.70;76.30;;;;;;4960703;28;20397;-60
2023/08/30 08:00:16;;;;;;;599.08;549.47;;;14.70;76.30;;;;;;4960045;28;20062;-60
2023/08/30 08:02:42;;;;;;;591.65;542.83;;;14.80;76.50;;;;;;4976770;28;20070;-59
2023/08/30 08:05:08;;;;;;;651.78;591.70;;;14.90;76.20;;;;;;4978468;28;20153;-60
2023/08/30 08:07:40;;;;;;;630.30;576.33;;;14.90;75.50;;;;;;4961790;28;20050;-60
2023/08/30 08:10:07;;;;;;;608.03;558.13;;;15.00;75.20;;;;;;4977254;28;20065;-59
2023/08/30 08:12:33;;;;;;;689.53;622.13;;;15.00;74.70;;;;;;4976482;28;20046;-60
2023/08/30 08:14:59;;;;;;;671.75;609.03;;;15.00;74.80;;;;;;4978675;28;20125;-60
2023/08/30 08:17:25;;;;;;;841.22;722.65;;;15.00;74.80;;;;;;4961408;28;20130;-59
2023/08/30 08:19:50;;;;;;;658.25;599.80;;;15.00;74.90;;;;;;4977201;28;20667;-59
2023/08/30 08:22:16;;;;;;;703.10;630.13;;;15.00;74.70;;;;;;4975989;28;20054;-60
2023/08/30 08:24:43;;;;;;;642.53;583.47;;;15.00;74.70;;;;;;4976574;28;20058;-60
2023/08/30 08:27:09;;;;;;;623.00;568.85;;;15.00;74.70;;;;;;4962062;28;20050;-59
2023/08/30 08:29:35;;;;;;;657.00;599.35;;;15.00;74.60;;;;;;4975442;28;20489;-60
2023/08/30 08:32:00;;;;;;;613.83;562.05;;;15.00;74.80;;;;;;4978282;28;20042;-59
2023/08/30 08:34:26;;;;;;;725.80;654.35;;;15.00;75.10;;;;;;4976397;28;20137;-60
2023/08/30 08:36:52;;;;;;;676.92;614.92;;;15.00;75.20;;;;;;4944832;28;20053;-59
2023/08/30 08:39:18;;;;;;;748.17;670.88;;;15.00;74.80;;;;;;4964476;28;20101;-59
2023/08/30 08:41:44;;;;;;;721.63;651.80;;;15.00;75.00;;;;;;4977252;28;20062;-59
2023/08/30 08:44:12;;;;;;;717.45;649.72;;;15.10;74.60;;;;;;4975780;28;20077;-59
2023/08/30 08:46:39;;;;;;;682.42;620.13;;;15.20;74.50;;;;;;4963940;28;20046;-59
2023/08/30 08:49:10;;;;;;;643.95;586.67;;;15.20;74.70;;;;;;4974354;28;20058;-59
2023/08/30 08:51:37;;;;;;;721.53;646.83;;;15.30;74.70;;;;;;4976742;28;20062;-60
2023/08/30 08:54:04;;;;;;;709.95;644.53;;;15.30;74.60;;;;;;4991325;28;20141;-60
2023/08/30 08:56:33;;;;;;;710.53;642.92;;;15.40;74.40;;;;;;4963017;28;20613;-60
2023/08/30 08:58:59;;;;;;;555.42;514.25;;;15.40;73.90;;;;;;4975004;28;20116;-60
2023/08/30 09:01:26;;;;;;;718.72;651.28;;;15.40;73.50;;;;;;4976188;28;20470;-59
2023/08/30 09:03:51;;;;;;;591.90;545.15;;;15.40;73.70;;;;;;4975997;28;20050;-59
2023/08/30 09:06:18;;;;;;;533.55;492.25;;;15.40;73.30;;;;;;4966490;28;20402;-59
2023/08/30 09:08:44;;;;;;;694.15;628.65;;;15.40;73.50;;;;;;4970262;28;20048;-59
2023/08/30 09:11:10;;;;;;;544.17;503.98;;;15.40;73.40;;;;;;4976498;28;20050;-59
2023/08/30 09:13:36;;;;;;;563.70;521.03;;;15.40;73.20;;;;;;4974420;28;20056;-59
2023/08/30 09:16:05;;;;;;;699.58;632.70;;;15.30;73.20;;;;;;4977739;28;20420;-59
2023/08/30 09:18:30;;;;;;;669.28;608.42;;;15.30;73.50;;;;;;4965345;28;20531;-59
2023/08/30 09:21:10;;;;;;;598.42;552.50;;;15.30;73.70;;;;;;4976460;28;20055;-59
2023/08/30 09:23:36;;;;;;;750.92;678.33;;;15.30;73.30;;;;;;4990536;28;20050;-60
2023/08/30 09:26:02;;;;;;;700.80;633.97;;;15.30;73.60;;;;;;4977464;28;20046;-59
2023/08/30 09:28:28;;;;;;;657.90;598.75;;;15.30;73.80;;;;;;4960517;28;20383;-59
2023/08/30 09:30:54;;;;;;;640.63;584.53;;;15.30;74.20;;;;;;4977093;28;20049;-59
2023/08/30 09:33:33;;;;;;;600.88;554.60;;;15.30;74.30;;;;;;4958839;28;20405;-59
2023/08/30 09:36:00;;;;;;;589.22;544.53;;;15.40;73.90;;;;;;4974961;28;20494;-59
2023/08/30 09:38:26;;;;;;;765.70;689.90;;;15.40;73.90;;;;;;4962092;28;20101;-59
2023/08/30 09:41:02;;;;;;;709.47;643.05;;;15.40;73.80;;;;;;4977731;28;20047;-60
2023/08/30 09:43:28;;;;;;;765.85;688.13;;;15.40;74.10;;;;;;4976783;28;20509;-59
2023/08/30 09:45:53;;;;;;;551.55;510.40;;;15.40;74.20;;;;;;4977317;28;20050;-59
2023/08/30 09:48:27;;;;;;;598.97;551.53;;;15.40;73.90;;;;;;4964622;28;20081;-60
2023/08/30 09:50:56;;;;;;;649.22;590.22;;;15.50;74.20;;;;;;4979903;28;20054;-60
2023/08/30 09:53:27;;;;;;;656.85;598.17;;;15.50;74.20;;;;;;4979956;28;20054;-60
2023/08/30 09:55:54;;;;;;;756.75;681.97;;;15.50;74.20;;;;;;4979133;28;20461;-60
2023/08/30 09:58:21;;;;;;;603.90;558.08;;;15.50;74.00;;;;;;4963627;28;20054;-59
2023/08/30 10:00:48;;;;;;;689.38;624.97;;;15.50;73.90;;;;;;4980262;28;20382;-59
2023/08/30 10:03:18;;;;;;;728.83;659.38;;;15.40;74.00;;;;;;4979318;28;20050;-59
2023/08/30 10:05:45;;;;;;;559.33;517.17;;;15.40;74.10;;;;;;4980023;28;20535;-59
2023/08/30 10:08:13;;;;;;;686.25;624.30;;;15.40;74.10;;;;;;4960605;28;20157;-60
2023/08/30 10:10:40;;;;;;;713.35;646.42;;;15.40;74.30;;;;;;4978566;28;20104;-60
2023/08/30 10:13:06;;;;;;;705.20;640.50;;;15.30;74.40;;;;;;4978540;28;20153;-59
2023/08/30 10:15:35;;;;;;;810.17;716.78;;;15.30;74.60;;;;;;4977126;28;20056;-60
2023/08/30 10:18:03;;;;;;;727.47;651.92;;;15.30;74.60;;;;;;4949515;28;20080;-60
2023/08/30 10:20:29;;;;;;;612.97;562.80;;;15.30;75.00;;;;;;4979361;28;20058;-59
2023/08/30 10:22:57;;;;;;;590.53;542.33;;;15.40;75.30;;;;;;4977264;28;20153;-60
2023/08/30 10:25:27;;;;;;;740.50;670.08;;;15.40;75.40;;;;;;4979755;28;20058;-59
2023/08/30 10:27:54;;;;;;;824.75;727.13;;;15.40;75.00;;;;;;4960592;28;20456;-59
2023/08/30 10:30:22;;;;;;;639.53;581.55;;;15.40;74.70;;;;;;4979855;28;20272;-60
2023/08/30 10:32:48;;;;;;;831.88;739.63;;;15.40;74.00;;;;;;4978702;28;20050;-59
2023/08/30 10:35:15;;;;;;;710.92;642.88;;;15.50;74.30;;;;;;4979377;28;20056;-59
2023/08/30 10:37:42;;;;;;;688.35;623.80;;;15.40;74.00;;;;;;4961911;28;20046;-59
2023/08/30 10:40:09;;;;;;;697.45;631.75;;;15.50;73.90;;;;;;4979487;28;20062;-59
2023/08/30 10:42:35;;;;;;;585.60;540.92;;;15.50;73.60;;;;;;4979029;28;20117;-60
2023/08/30 10:45:04;;;;;;;697.35;631.00;;;15.50;74.00;;;;;;4977856;28;20060;-60
2023/08/30 10:47:31;;;;;;;657.97;598.63;;;15.60;74.00;;;;;;4962534;28;20137;-61
2023/08/30 10:50:04;;;;;;;676.25;616.58;;;15.60;73.90;;;;;;4978647;28;20050;-60
2023/08/30 10:52:30;;;;;;;621.80;569.65;;;15.60;74.10;;;;;;4977695;28;20042;-59
2023/08/30 10:55:14;;;;;;;751.92;672.00;;;15.60;74.50;;;;;;4978639;28;20113;-60
2023/08/30 10:57:44;;;;;;;664.47;602.80;;;15.60;73.80;;;;;;4961899;28;20057;-59
2023/08/30 11:00:18;;;;;;;674.65;612.65;;;15.60;74.10;;;;;;4978081;28;20058;-59
2023/08/30 11:02:48;;;;;;;666.55;607.03;;;15.60;74.30;;;;;;4977154;28;20121;-60
2023/08/30 11:05:19;;;;;;;719.80;651.97;;;15.60;74.40;;;;;;4977743;28;20089;-59
2023/08/30 11:07:46;;;;;;;493.55;457.33;;;15.60;74.10;;;;;;4962471;28;20050;-59
2023/08/30 11:10:12;;;;;;;761.85;687.20;;;15.60;74.00;;;;;;4976398;28;20485;-60
2023/08/30 11:12:41;;;;;;;630.35;579.45;;;15.60;73.90;;;;;;4977503;28;20054;-60
2023/08/30 11:15:09;;;;;;;668.00;606.83;;;15.60;74.20;;;;;;4991007;28;20054;-59
2023/08/30 11:17:35;;;;;;;613.35;563.15;;;15.60;74.10;;;;;;4959783;28;20042;-59
2023/08/30 11:20:09;;;;;;;685.47;624.80;;;15.60;74.70;;;;;;4975197;28;20076;-59
2023/08/30 11:22:40;;;;;;;704.13;639.47;;;15.70;74.90;;;;;;4973544;28;20054;-59
2023/08/30 11:25:07;;;;;;;634.85;581.35;;;15.70;75.00;;;;;;4977907;28;20528;-59
2023/08/30 11:27:33;;;;;;;609.42;559.70;;;15.70;75.10;;;;;;4960524;28;20054;-60
2023/08/30 11:30:02;;;;;;;678.38;617.92;;;15.60;74.70;;;;;;4978627;28;20050;-60
2023/08/30 11:32:32;;;;;;;671.35;611.13;;;15.60;74.70;;;;;;4977380;28;20853;-60
2023/08/30 11:34:58;;;;;;;666.30;608.00;;;15.60;74.80;;;;;;4977971;28;20046;-60
2023/08/30 11:37:26;;;;;;;618.10;566.45;;;15.60;75.10;;;;;;4961732;28;20577;-60
2023/08/30 11:39:52;;;;;;;681.22;621.55;;;15.60;75.20;;;;;;4979297;28;20050;-60
2023/08/30 11:42:19;;;;;;;557.63;516.85;;;15.60;75.40;;;;;;4977205;28;20122;-60
2023/08/30 11:44:45;;;;;;;550.28;509.85;;;15.60;75.20;;;;;;4977736;28;20505;-60
2023/08/30 11:47:11;;;;;;;567.80;525.53;;;15.60;75.00;;;;;;4960471;28;20073;-60
2023/08/30 11:49:39;;;;;;;588.35;545.17;;;15.60;75.30;;;;;;4976992;28;20687;-60
2023/08/30 11:52:06;;;;;;;632.55;579.70;;;15.50;75.40;;;;;;4976607;28;20062;-59
2023/08/30 11:54:32;;;;;;;611.35;563.47;;;15.60;75.30;;;;;;4978085;28;20378;-59
2023/08/30 11:56:58;;;;;;;602.15;554.47;;;15.50;75.50;;;;;;4963326;28;20109;-60
2023/08/30 11:59:24;;;;;;;599.60;554.80;;;15.50;75.40;;;;;;4976534;28;20050;-60
2023/08/30 12:01:52;;;;;;;569.42;527.20;;;15.60;75.50;;;;;;4978079;28;20062;-60
2023/08/30 12:04:18;;;;;;;632.60;578.03;;;15.60;75.70;;;;;;4977706;28;20774;-60
2023/08/30 12:06:52;;;;;;;745.55;669.88;;;15.60;75.90;;;;;;4963195;28;20109;-60
2023/08/30 12:09:17;;;;;;;562.10;520.95;;;15.60;75.80;;;;;;4974710;28;20149;-60